Temp: 10.3°C   Baro: 1019.6mb
  Wind: 2.0mph   Dir: WSW (239°)
  Rain: 0.0mm (0.0mm/hr)
  Solar: 0W/m2  Hum: 89%
 
Bath Spa Weather Station Historical Data
Daily Summary for November 22, 2020 Units:  Both    English   Metric
Daily Weekly Monthly Yearly Custom
  High: Low: Average:
Temperature: 51.1 °F /  10.6 °C 39.6 °F /  4.2 °C 45.9 °F /  7.7 °C
Dew Point: 49.5 °F /  9.7 °C 38.6 °F /  3.7 °C 44.3 °F /  6.8 °C
Humidity: 96% 79% 91%
Wind Speed: 4.9mph /  7.9km/h - 0.7mph /  1.1km/h
Wind Gust: 9mph /  14.5km/h - -
Wind- - WNW
Pressure: 30.35 in /  1027.7 hPa 30.26 in /  1024.6 hPa -
Precipitation: 0.02 in /  0.51 mm    
Historical Graphs
 
 
Tabular Data for November 22, 2020
Time Temperature Dew Point Pressure Wind Wind Speed Wind Gust Humidity Rainfall Rate (Hourly) solar
00:04 50.5 °F /  10.3 °C 49.3 °F /  9.6 °C 30.26in /  1024.6hPa WSW 4.1mph /  6.6km/h 8mph /  12.9km/h 92% 0.00in /  0mm 0 W/m2
00:09 50.5 °F /  10.3 °C 49.3 °F /  9.6 °C 30.26in /  1024.6hPa West 2.4mph /  3.9km/h 6mph /  9.7km/h 92% 0.00in /  0mm 0 W/m2
00:14 50.5 °F /  10.3 °C 49.3 °F /  9.6 °C 30.26in /  1024.6hPa WSW 4.9mph /  7.9km/h 9mph /  14.5km/h 92% 0.00in /  0mm 0 W/m2
00:19 50.5 °F /  10.3 °C 49.3 °F /  9.6 °C 30.27in /  1024.9hPa WSW 3.8mph /  6.1km/h 7mph /  11.3km/h 92% 0.00in /  0mm 0 W/m2
00:24 50.5 °F /  10.3 °C 49.3 °F /  9.6 °C 30.27in /  1024.9hPa West 2.8mph /  4.5km/h 5mph /  8km/h 92% 0.00in /  0mm 0 W/m2
00:29 50.5 °F /  10.3 °C 49.3 °F /  9.6 °C 30.27in /  1024.9hPa WSW 4.2mph /  6.8km/h 8mph /  12.9km/h 92% 0.00in /  0mm 0 W/m2
00:34 50.6 °F /  10.3 °C 49.4 °F /  9.7 °C 30.27in /  1024.9hPa WSW 4.6mph /  7.4km/h 8mph /  12.9km/h 92% 0.00in /  0mm 0 W/m2
00:39 50.6 °F /  10.3 °C 49.4 °F /  9.7 °C 30.27in /  1024.9hPa West 4mph /  6.4km/h 8mph /  12.9km/h 92% 0.00in /  0mm 0 W/m2
00:44 50.5 °F /  10.3 °C 49.3 °F /  9.6 °C 30.26in /  1024.6hPa WSW 2.9mph /  4.7km/h 7mph /  11.3km/h 92% 0.00in /  0mm 0 W/m2
00:49 50.5 °F /  10.3 °C 49.3 °F /  9.6 °C 30.27in /  1024.9hPa WSW 1.7mph /  2.7km/h 7mph /  11.3km/h 92% 0.00in /  0mm 0 W/m2
00:54 50.5 °F /  10.3 °C 49.3 °F /  9.6 °C 30.27in /  1024.9hPa West 2.9mph /  4.7km/h 6mph /  9.7km/h 92% 0.00in /  0mm 0 W/m2
00:59 50.5 °F /  10.3 °C 49.3 °F /  9.6 °C 30.27in /  1024.9hPa WNW 2.7mph /  4.3km/h 6mph /  9.7km/h 92% 0.00in /  0mm 0 W/m2
01:04 50.4 °F /  10.2 °C 49.2 °F /  9.6 °C 30.27in /  1024.9hPa West 2.9mph /  4.7km/h 6mph /  9.7km/h 92% 0.00in /  0mm 0 W/m2
01:09 50.4 °F /  10.2 °C 49.2 °F /  9.6 °C 30.27in /  1024.9hPa West 2.8mph /  4.5km/h 5mph /  8km/h 92.4% 0.00in /  0mm 0 W/m2
01:14 50.4 °F /  10.2 °C 49.3 °F /  9.6 °C 30.27in /  1024.9hPa WNW 2mph /  3.2km/h 5mph /  8km/h 93% 0.01in /  0.25mm 0 W/m2
01:19 50.4 °F /  10.2 °C 49.3 °F /  9.6 °C 30.27in /  1024.9hPa WNW 2.8mph /  4.5km/h 5mph /  8km/h 93% 0.01in /  0.25mm 0 W/m2
01:24 50.4 °F /  10.2 °C 49.3 °F /  9.6 °C 30.27in /  1024.9hPa West 2.8mph /  4.5km/h 5mph /  8km/h 93% 0.01in /  0.25mm 0 W/m2
01:29 50.4 °F /  10.2 °C 49.3 °F /  9.6 °C 30.27in /  1024.9hPa West 1.2mph /  1.9km/h 4mph /  6.4km/h 93% 0.01in /  0.25mm 0 W/m2
01:34 50.4 °F /  10.2 °C 49.3 °F /  9.6 °C 30.27in /  1024.9hPa West 1.2mph /  1.9km/h 4mph /  6.4km/h 93% 0.01in /  0.25mm 0 W/m2
01:39 50.4 °F /  10.2 °C 49.3 °F /  9.6 °C 30.27in /  1024.9hPa West 0.8mph /  1.3km/h 2mph /  3.2km/h 93% 0.01in /  0.25mm 0 W/m2
01:44 50.4 °F /  10.2 °C 49.3 °F /  9.6 °C 30.27in /  1024.9hPa West 1.7mph /  2.7km/h 3mph /  4.8km/h 93% 0.01in /  0.25mm 0 W/m2
01:49 50.4 °F /  10.2 °C 49.3 °F /  9.6 °C 30.27in /  1024.9hPa West 0.8mph /  1.3km/h 3mph /  4.8km/h 93% 0.01in /  0.25mm 0 W/m2
01:54 50.4 °F /  10.2 °C 49.4 °F /  9.7 °C 30.27in /  1024.9hPa West 1.2mph /  1.9km/h 4mph /  6.4km/h 93.2% 0.01in /  0.25mm 0 W/m2
01:59 50.4 °F /  10.2 °C 49.3 °F /  9.6 °C 30.27in /  1024.9hPa West 1mph /  1.6km/h 3mph /  4.8km/h 93% 0.01in /  0.25mm 0 W/m2
02:04 50.4 °F /  10.2 °C 49.3 °F /  9.6 °C 30.27in /  1024.9hPa West 1.1mph /  1.8km/h 4mph /  6.4km/h 93% 0.01in /  0.25mm 0 W/m2
02:09 50.4 °F /  10.2 °C 49.4 °F /  9.7 °C 30.27in /  1024.9hPa West 0.6mph /  1km/h 3mph /  4.8km/h 93.4% 0.01in /  0.25mm 0 W/m2
02:14 50.4 °F /  10.2 °C 49.5 °F /  9.7 °C 30.27in /  1024.9hPa West 0.9mph /  1.4km/h 2mph /  3.2km/h 93.8% 0.01in /  0.25mm 0 W/m2
02:19 50.2 °F /  10.1 °C 49.5 °F /  9.7 °C 30.27in /  1024.9hPa West 1mph /  1.6km/h 4mph /  6.4km/h 94% 0.00in /  0mm 0 W/m2
02:24 50.2 °F /  10.1 °C 49.5 °F /  9.7 °C 30.27in /  1024.9hPa West 2mph /  3.2km/h 4mph /  6.4km/h 94% 0.00in /  0mm 0 W/m2
02:29 50.2 °F /  10.1 °C 49.5 °F /  9.7 °C 30.27in /  1024.9hPa West 1.6mph /  2.6km/h 5mph /  8km/h 94% 0.00in /  0mm 0 W/m2
02:34 50 °F /  10 °C 49.3 °F /  9.6 °C 30.27in /  1024.9hPa West 1.7mph /  2.7km/h 5mph /  8km/h 94% 0.00in /  0mm 0 W/m2
02:39 49.9 °F /  9.9 °C 49.2 °F /  9.6 °C 30.27in /  1024.9hPa West 1.4mph /  2.3km/h 4mph /  6.4km/h 94% 0.00in /  0mm 0 W/m2
02:44 49.8 °F /  9.9 °C 49.1 °F /  9.5 °C 30.27in /  1024.9hPa West 0.5mph /  0.8km/h 3mph /  4.8km/h 94% 0.00in /  0mm 0 W/m2
02:49 49.7 °F /  9.8 °C 49 °F /  9.4 °C 30.27in /  1024.9hPa West 0.8mph /  1.3km/h 4mph /  6.4km/h 94% 0.00in /  0mm 0 W/m2
02:54 49.6 °F /  9.8 °C 48.9 °F /  9.4 °C 30.27in /  1024.9hPa West 1.3mph /  2.1km/h 4mph /  6.4km/h 94% 0.00in /  0mm 0 W/m2
02:59 49.6 °F /  9.8 °C 48.9 °F /  9.4 °C 30.27in /  1024.9hPa West 2mph /  3.2km/h 4mph /  6.4km/h 94% 0.00in /  0mm 0 W/m2
03:04 49.5 °F /  9.7 °C 48.7 °F /  9.3 °C 30.28in /  1025.3hPa West 1.2mph /  1.9km/h 3mph /  4.8km/h 94% 0.00in /  0mm 0 W/m2
03:09 49.5 °F /  9.7 °C 48.7 °F /  9.3 °C 30.28in /  1025.3hPa West 0.4mph /  0.6km/h 4mph /  6.4km/h 94% 0.00in /  0mm 0 W/m2
03:14 49.4 °F /  9.7 °C 48.7 °F /  9.3 °C 30.28in /  1025.3hPa West 0.4mph /  0.6km/h 3mph /  4.8km/h 94% 0.00in /  0mm 0 W/m2
03:19 49.3 °F /  9.6 °C 48.6 °F /  9.2 °C 30.28in /  1025.3hPa West 0.8mph /  1.3km/h 3mph /  4.8km/h 94% 0.00in /  0mm 0 W/m2
03:24 49.1 °F /  9.5 °C 48.4 °F /  9.1 °C 30.28in /  1025.3hPa West 0.4mph /  0.6km/h 2mph /  3.2km/h 94% 0.00in /  0mm 0 W/m2
03:29 48.9 °F /  9.4 °C 48.2 °F /  9 °C 30.28in /  1025.3hPa Calm   1mph /  1.6km/h 94% 0.00in /  0mm 0 W/m2
03:34 48.7 °F /  9.3 °C 48 °F /  8.9 °C 30.29in /  1025.6hPa Calm   1mph /  1.6km/h 94% 0.00in /  0mm 0 W/m2
03:39 48.6 °F /  9.2 °C 47.9 °F /  8.8 °C 30.29in /  1025.6hPa Calm     94% 0.00in /  0mm 0 W/m2
03:44 48.4 °F /  9.1 °C 47.7 °F /  8.7 °C 30.29in /  1025.6hPa West 0.4mph /  0.6km/h 2mph /  3.2km/h 94% 0.00in /  0mm 0 W/m2
03:49 48 °F /  8.9 °C 47.3 °F /  8.5 °C 30.29in /  1025.6hPa West 0.2mph /  0.3km/h 1mph /  1.6km/h 94% 0.00in /  0mm 0 W/m2
03:54 47.7 °F /  8.7 °C 47 °F /  8.3 °C 30.29in /  1025.6hPa Calm     94% 0.00in /  0mm 0 W/m2
03:59 47.6 °F /  8.7 °C 46.9 °F /  8.3 °C 30.29in /  1025.6hPa Calm     94% 0.00in /  0mm 0 W/m2
04:04 47.3 °F /  8.5 °C 46.6 °F /  8.1 °C 30.29in /  1025.6hPa Calm   2mph /  3.2km/h 94% 0.00in /  0mm 0 W/m2
04:09 47 °F /  8.3 °C 46.3 °F /  7.9 °C 30.29in /  1025.6hPa Calm     94% 0.00in /  0mm 0 W/m2
04:14 46.9 °F /  8.3 °C 46.2 °F /  7.9 °C 30.29in /  1025.6hPa Calm     94% 0.00in /  0mm 0 W/m2
04:19 46.9 °F /  8.3 °C 46.2 °F /  7.9 °C 30.29in /  1025.6hPa Calm     94% 0.00in /  0mm 0 W/m2
04:24 46.6 °F /  8.1 °C 45.9 °F /  7.7 °C 30.29in /  1025.6hPa West 0.2mph /  0.3km/h 2mph /  3.2km/h 94% 0.00in /  0mm 0 W/m2
04:29 46.2 °F /  7.9 °C 45.5 °F /  7.5 °C 30.29in /  1025.6hPa West 0.4mph /  0.6km/h 2mph /  3.2km/h 94% 0.00in /  0mm 0 W/m2
04:34 46 °F /  7.8 °C 45.3 °F /  7.4 °C 30.29in /  1025.6hPa Calm     94% 0.00in /  0mm 0 W/m2
04:39 46 °F /  7.8 °C 45.2 °F /  7.3 °C 30.29in /  1025.6hPa Calm     94% 0.00in /  0mm 0 W/m2
04:44 45.8 °F /  7.7 °C 45.1 °F /  7.3 °C 30.29in /  1025.6hPa Calm     94% 0.00in /  0mm 0 W/m2
04:49 45.7 °F /  7.6 °C 45 °F /  7.2 °C 30.29in /  1025.6hPa Calm     94% 0.00in /  0mm 0 W/m2
04:54 45.4 °F /  7.4 °C 44.7 °F /  7.1 °C 30.29in /  1025.6hPa Calm     94% 0.00in /  0mm 0 W/m2
04:59 45.1 °F /  7.3 °C 44.4 °F /  6.9 °C 30.29in /  1025.6hPa Calm     94% 0.00in /  0mm 0 W/m2
05:04 45.1 °F /  7.3 °C 44.4 °F /  6.9 °C 30.29in /  1025.6hPa Calm     94% 0.00in /  0mm 0 W/m2
05:09 45.2 °F /  7.3 °C 44.5 °F /  6.9 °C 30.29in /  1025.6hPa West 0.4mph /  0.6km/h 2mph /  3.2km/h 94% 0.00in /  0mm 0 W/m2
05:14 45.1 °F /  7.3 °C 44.5 °F /  6.9 °C 30.29in /  1025.6hPa Calm   1mph /  1.6km/h 94.4% 0.00in /  0mm 0 W/m2
05:19 45.1 °F /  7.3 °C 44.4 °F /  6.9 °C 30.29in /  1025.6hPa Calm   2mph /  3.2km/h 94% 0.00in /  0mm 0 W/m2
05:24 45 °F /  7.2 °C 44.3 °F /  6.8 °C 30.29in /  1025.6hPa West 0.2mph /  0.3km/h 2mph /  3.2km/h 94% 0.00in /  0mm 0 W/m2
05:29 45.1 °F /  7.3 °C 44.5 °F /  6.9 °C 30.29in /  1025.6hPa Calm     94.4% 0.00in /  0mm 0 W/m2
05:34 45 °F /  7.2 °C 44.2 °F /  6.8 °C 30.29in /  1025.6hPa Calm     94% 0.00in /  0mm 0 W/m2
05:39 44.9 °F /  7.2 °C 44.3 °F /  6.8 °C 30.29in /  1025.6hPa Calm     94.4% 0.00in /  0mm 0 W/m2
05:44 44.7 °F /  7.1 °C 44.3 °F /  6.8 °C 30.30in /  1026hPa Calm     95% 0.00in /  0mm 0 W/m2
05:49 44.5 °F /  6.9 °C 44.1 °F /  6.7 °C 30.29in /  1025.6hPa Calm     94.8% 0.00in /  0mm 0 W/m2
05:54 44.3 °F /  6.8 °C 43.6 °F /  6.4 °C 30.30in /  1026hPa Calm     94% 0.00in /  0mm 0 W/m2
05:59 44.2 °F /  6.8 °C 43.7 °F /  6.5 °C 30.30in /  1026hPa Calm     94.4% 0.00in /  0mm 0 W/m2
06:04 44.2 °F /  6.8 °C 43.9 °F /  6.6 °C 30.30in /  1026hPa Calm     95% 0.00in /  0mm 0 W/m2
06:09 44.1 °F /  6.7 °C 43.8 °F /  6.6 °C 30.30in /  1026hPa Calm     95% 0.00in /  0mm 0 W/m2
06:14 44.2 °F /  6.8 °C 43.8 °F /  6.6 °C 30.30in /  1026hPa Calm     95% 0.00in /  0mm 0 W/m2
06:19 44.1 °F /  6.7 °C 43.7 °F /  6.5 °C 30.30in /  1026hPa Calm     95% 0.00in /  0mm 0 W/m2
06:24 44.1 °F /  6.7 °C 43.7 °F /  6.5 °C 30.30in /  1026hPa Calm     95% 0.00in /  0mm 0 W/m2
06:29 44.2 °F /  6.8 °C 43.9 °F /  6.6 °C 30.30in /  1026hPa Calm     95% 0.00in /  0mm 0 W/m2
06:34 44.1 °F /  6.7 °C 43.7 °F /  6.5 °C 30.30in /  1026hPa Calm     95% 0.00in /  0mm 0 W/m2
06:39 44.1 °F /  6.7 °C 43.7 °F /  6.5 °C 30.31in /  1026.3hPa Calm     95% 0.00in /  0mm 0 W/m2
06:44 43.9 °F /  6.6 °C 43.5 °F /  6.4 °C 30.31in /  1026.3hPa Calm     95% 0.00in /  0mm 0 W/m2
06:49 43.9 °F /  6.6 °C 43.5 °F /  6.4 °C 30.31in /  1026.3hPa Calm     95% 0.00in /  0mm 0 W/m2
06:54 43.9 °F /  6.6 °C 43.5 °F /  6.4 °C 30.31in /  1026.3hPa Calm     95% 0.00in /  0mm 0 W/m2
06:59 43.7 °F /  6.5 °C 43.3 °F /  6.3 °C 30.31in /  1026.3hPa Calm     95% 0.00in /  0mm 0 W/m2
07:04 43.7 °F /  6.5 °C 43.3 °F /  6.3 °C 30.31in /  1026.3hPa Calm     95% 0.00in /  0mm 0 W/m2
07:09 43.7 °F /  6.5 °C 43.3 °F /  6.3 °C 30.32in /  1026.6hPa Calm     95% 0.00in /  0mm 0 W/m2
07:14 43.7 °F /  6.5 °C 43.3 °F /  6.3 °C 30.31in /  1026.3hPa Calm     95% 0.00in /  0mm 0 W/m2
07:19 43.7 °F /  6.5 °C 43.3 °F /  6.3 °C 30.32in /  1026.6hPa Calm     95% 0.00in /  0mm 0 W/m2
07:24 43.7 °F /  6.5 °C 43.3 °F /  6.3 °C 30.32in /  1026.6hPa Calm     95% 0.00in /  0mm 0 W/m2
07:29 43.7 °F /  6.5 °C 43.3 °F /  6.3 °C 30.32in /  1026.6hPa Calm     95% 0.00in /  0mm 0 W/m2
07:34 43.9 °F /  6.6 °C 43.5 °F /  6.4 °C 30.32in /  1026.6hPa Calm     95% 0.00in /  0mm 0 W/m2
07:39 43.9 °F /  6.6 °C 43.5 °F /  6.4 °C 30.32in /  1026.6hPa Calm     95% 0.00in /  0mm 0 W/m2
07:44 44.1 °F /  6.7 °C 43.7 °F /  6.5 °C 30.32in /  1026.6hPa Calm     95% 0.00in /  0mm 0 W/m2
07:49 44.1 °F /  6.7 °C 43.8 °F /  6.6 °C 30.32in /  1026.6hPa Calm     95% 0.00in /  0mm 0 W/m2
07:54 44.2 °F /  6.8 °C 43.9 °F /  6.6 °C 30.32in /  1026.6hPa Calm   2mph /  3.2km/h 95% 0.00in /  0mm 0 W/m2
07:59 44.4 °F /  6.9 °C 44.1 °F /  6.7 °C 30.32in /  1026.6hPa Calm   2mph /  3.2km/h 95% 0.00in /  0mm 5 W/m2
08:04 44.4 °F /  6.9 °C 44.1 °F /  6.7 °C 30.32in /  1026.6hPa West 0.2mph /  0.3km/h 2mph /  3.2km/h 95% 0.00in /  0mm 7 W/m2
08:09 44.4 °F /  6.9 °C 44.1 °F /  6.7 °C 30.32in /  1026.6hPa West 1.1mph /  1.8km/h 2mph /  3.2km/h 95% 0.00in /  0mm 11 W/m2
08:14 44.4 °F /  6.9 °C 44.1 °F /  6.7 °C 30.32in /  1026.6hPa West 0.4mph /  0.6km/h 2mph /  3.2km/h 95% 0.00in /  0mm 12 W/m2
08:19 44.4 °F /  6.9 °C 44.1 °F /  6.7 °C 30.32in /  1026.6hPa Calm   1mph /  1.6km/h 95% 0.00in /  0mm 14 W/m2
08:24 44.4 °F /  6.9 °C 44.1 °F /  6.7 °C 30.32in /  1026.6hPa Calm   2mph /  3.2km/h 95% 0.00in /  0mm 18 W/m2
08:29 44.5 °F /  6.9 °C 44.1 °F /  6.7 °C 30.33in /  1027hPa Calm   1mph /  1.6km/h 95% 0.00in /  0mm 18 W/m2
08:34 44.6 °F /  7 °C 44.2 °F /  6.8 °C 30.33in /  1027hPa West 0.8mph /  1.3km/h 2mph /  3.2km/h 95% 0.00in /  0mm 19 W/m2
08:39 44.5 °F /  6.9 °C 44.2 °F /  6.8 °C 30.33in /  1027hPa West 0.5mph /  0.8km/h 3mph /  4.8km/h 95% 0.00in /  0mm 19 W/m2
08:44 44.7 °F /  7.1 °C 44.3 °F /  6.8 °C 30.33in /  1027hPa Calm   2mph /  3.2km/h 95% 0.00in /  0mm 21 W/m2
08:49 44.7 °F /  7.1 °C 44.3 °F /  6.8 °C 30.33in /  1027hPa Calm   1mph /  1.6km/h 95% 0.00in /  0mm 26 W/m2
08:54 44.7 °F /  7.1 °C 44.3 °F /  6.8 °C 30.33in /  1027hPa West 0.2mph /  0.3km/h 2mph /  3.2km/h 95% 0.00in /  0mm 33 W/m2
08:59 44.8 °F /  7.1 °C 44.4 °F /  6.9 °C 30.34in /  1027.3hPa Calm   2mph /  3.2km/h 95% 0.00in /  0mm 40 W/m2
09:04 44.7 °F /  7.1 °C 44.3 °F /  6.8 °C 30.34in /  1027.3hPa West 0.5mph /  0.8km/h 2mph /  3.2km/h 95% 0.00in /  0mm 44 W/m2
09:09 44.5 °F /  6.9 °C 44.1 °F /  6.7 °C 30.34in /  1027.3hPa West 0.2mph /  0.3km/h 2mph /  3.2km/h 95% 0.00in /  0mm 42 W/m2
09:14 44.7 °F /  7.1 °C 44.3 °F /  6.8 °C 30.34in /  1027.3hPa West 0.2mph /  0.3km/h 1mph /  1.6km/h 95% 0.00in /  0mm 44 W/m2
09:19 44.7 °F /  7.1 °C 44.3 °F /  6.8 °C 30.34in /  1027.3hPa West 0.9mph /  1.4km/h 2mph /  3.2km/h 95% 0.00in /  0mm 54 W/m2
09:24 44.6 °F /  7 °C 44.2 °F /  6.8 °C 30.34in /  1027.3hPa West 0.4mph /  0.6km/h 2mph /  3.2km/h 95% 0.00in /  0mm 67 W/m2
09:29 44.6 °F /  7 °C 44.2 °F /  6.8 °C 30.34in /  1027.3hPa West 0.5mph /  0.8km/h 2mph /  3.2km/h 95% 0.00in /  0mm 58 W/m2
09:34 44.6 °F /  7 °C 44.2 °F /  6.8 °C 30.34in /  1027.3hPa Calm   1mph /  1.6km/h 95% 0.00in /  0mm 83 W/m2
09:39 44.7 °F /  7.1 °C 44.3 °F /  6.8 °C 30.34in /  1027.3hPa West 0.5mph /  0.8km/h 2mph /  3.2km/h 95% 0.00in /  0mm 102 W/m2
09:44 44.6 °F /  7 °C 44.3 °F /  6.8 °C 30.34in /  1027.3hPa Calm   1mph /  1.6km/h 95.4% 0.00in /  0mm 118 W/m2
09:49 44.8 °F /  7.1 °C 44.4 °F /  6.9 °C 30.34in /  1027.3hPa West 0.2mph /  0.3km/h 1mph /  1.6km/h 95% 0.00in /  0mm 107 W/m2
09:54 44.8 °F /  7.1 °C 44.4 °F /  6.9 °C 30.34in /  1027.3hPa Calm   1mph /  1.6km/h 95% 0.01in /  0.25mm 134 W/m2
09:59 44.9 °F /  7.2 °C 44.4 °F /  6.9 °C 30.34in /  1027.3hPa Calm     95% 0.01in /  0.25mm 137 W/m2
10:04 45 °F /  7.2 °C 44.7 °F /  7.1 °C 30.34in /  1027.3hPa Calm     95.8% 0.01in /  0.25mm 128 W/m2
10:09 45.1 °F /  7.3 °C 45 °F /  7.2 °C 30.34in /  1027.3hPa Calm     96% 0.01in /  0.25mm 171 W/m2
10:14 45.3 °F /  7.4 °C 45.1 °F /  7.3 °C 30.34in /  1027.3hPa Calm     96% 0.01in /  0.25mm 93 W/m2
10:19 45.3 °F /  7.4 °C 45.1 °F /  7.3 °C 30.34in /  1027.3hPa Calm   1mph /  1.6km/h 96% 0.01in /  0.25mm 123 W/m2
10:24 45.3 °F /  7.4 °C 45.1 °F /  7.3 °C 30.34in /  1027.3hPa Calm     96% 0.01in /  0.25mm 111 W/m2
10:29 45.3 °F /  7.4 °C 45.1 °F /  7.3 °C 30.34in /  1027.3hPa Calm     96% 0.01in /  0.25mm 83 W/m2
10:34 45.5 °F /  7.5 °C 45.3 °F /  7.4 °C 30.34in /  1027.3hPa Calm     96% 0.01in /  0.25mm 72 W/m2
10:39 45.7 °F /  7.6 °C 45.5 °F /  7.5 °C 30.35in /  1027.7hPa Calm     96% 0.01in /  0.25mm 125 W/m2
10:44 45.7 °F /  7.6 °C 45.5 °F /  7.5 °C 30.35in /  1027.7hPa Calm     96% 0.01in /  0.25mm 142 W/m2
10:49 45.9 °F /  7.7 °C 45.7 °F /  7.6 °C 30.35in /  1027.7hPa Calm   1mph /  1.6km/h 96% 0.01in /  0.25mm 171 W/m2
10:54 46 °F /  7.8 °C 45.9 °F /  7.7 °C 30.35in /  1027.7hPa West 0.5mph /  0.8km/h 3mph /  4.8km/h 96% 0.00in /  0mm 176 W/m2
10:59 46 °F /  7.8 °C 45.8 °F /  7.7 °C 30.35in /  1027.7hPa West 0.4mph /  0.6km/h 3mph /  4.8km/h 96% 0.00in /  0mm 190 W/m2
11:04 46 °F /  7.8 °C 45.9 °F /  7.7 °C 30.35in /  1027.7hPa Calm   1mph /  1.6km/h 96% 0.00in /  0mm 139 W/m2
11:09 46 °F /  7.8 °C 45.9 °F /  7.7 °C 30.35in /  1027.7hPa West 0.4mph /  0.6km/h 2mph /  3.2km/h 96% 0.00in /  0mm 128 W/m2
11:14 45.9 °F /  7.7 °C 45.7 °F /  7.6 °C 30.35in /  1027.7hPa Calm   1mph /  1.6km/h 96% 0.00in /  0mm 155 W/m2
11:19 46.2 °F /  7.9 °C 46 °F /  7.8 °C 30.35in /  1027.7hPa West 0.6mph /  1km/h 3mph /  4.8km/h 96% 0.00in /  0mm 181 W/m2
11:24 46.4 °F /  8 °C 46.2 °F /  7.9 °C 30.35in /  1027.7hPa Calm   3mph /  4.8km/h 96% 0.00in /  0mm 199 W/m2
11:29 46.7 °F /  8.2 °C 46.5 °F /  8.1 °C 30.34in /  1027.3hPa West 0.9mph /  1.4km/h 3mph /  4.8km/h 96% 0.00in /  0mm 220 W/m2
11:34 46.8 °F /  8.2 °C 46.6 °F /  8.1 °C 30.34in /  1027.3hPa West 0.2mph /  0.3km/h 3mph /  4.8km/h 96% 0.00in /  0mm 288 W/m2
11:39 47.2 °F /  8.4 °C 47 °F /  8.3 °C 30.34in /  1027.3hPa Calm     96% 0.00in /  0mm 262 W/m2
11:44 47.3 °F /  8.5 °C 47.1 °F /  8.4 °C 30.34in /  1027.3hPa West 0.4mph /  0.6km/h 2mph /  3.2km/h 96% 0.00in /  0mm 190 W/m2
11:49 47.1 °F /  8.4 °C 46.9 °F /  8.3 °C 30.34in /  1027.3hPa Calm   2mph /  3.2km/h 96% 0.00in /  0mm 174 W/m2
11:54 47.6 °F /  8.7 °C 47.4 °F /  8.6 °C 30.34in /  1027.3hPa Calm   1mph /  1.6km/h 96% 0.00in /  0mm 186 W/m2
11:59 47.5 °F /  8.6 °C 47.3 °F /  8.5 °C 30.34in /  1027.3hPa West 0.4mph /  0.6km/h 2mph /  3.2km/h 96% 0.00in /  0mm 149 W/m2
12:04 47.5 °F /  8.6 °C 47.3 °F /  8.5 °C 30.34in /  1027.3hPa West 0.6mph /  1km/h 3mph /  4.8km/h 96% 0.00in /  0mm 199 W/m2
12:09 47.5 °F /  8.6 °C 47.2 °F /  8.4 °C 30.34in /  1027.3hPa West 0.8mph /  1.3km/h 4mph /  6.4km/h 95.8% 0.00in /  0mm 181 W/m2
12:14 47.6 °F /  8.7 °C 47 °F /  8.3 °C 30.34in /  1027.3hPa West 0.2mph /  0.3km/h 4mph /  6.4km/h 95% 0.00in /  0mm 178 W/m2
12:19 48 °F /  8.9 °C 47.5 °F /  8.6 °C 30.34in /  1027.3hPa West 0.2mph /  0.3km/h 2mph /  3.2km/h 95% 0.00in /  0mm 172 W/m2
12:24 48.5 °F /  9.2 °C 47.9 °F /  8.8 °C 30.33in /  1027hPa West 0.2mph /  0.3km/h 1mph /  1.6km/h 95% 0.00in /  0mm 179 W/m2
12:29 48.6 °F /  9.2 °C 48 °F /  8.9 °C 30.33in /  1027hPa West 0.2mph /  0.3km/h 2mph /  3.2km/h 95% 0.00in /  0mm 248 W/m2
12:34 48.7 °F /  9.3 °C 48 °F /  8.9 °C 30.33in /  1027hPa West 0.2mph /  0.3km/h 2mph /  3.2km/h 94% 0.00in /  0mm 255 W/m2
12:39 49.4 °F /  9.7 °C 48.4 °F /  9.1 °C 30.33in /  1027hPa West 0.2mph /  0.3km/h 2mph /  3.2km/h 93.2% 0.00in /  0mm 267 W/m2
12:44 49.6 °F /  9.8 °C 48.2 °F /  9 °C 30.33in /  1027hPa West 0.6mph /  1km/h 3mph /  4.8km/h 91.4% 0.00in /  0mm 267 W/m2
12:49 50.2 °F /  10.1 °C 48 °F /  8.9 °C 30.33in /  1027hPa West 1.2mph /  1.9km/h 4mph /  6.4km/h 89.4% 0.00in /  0mm 269 W/m2
12:54 50.3 °F /  10.2 °C 47.5 °F /  8.6 °C 30.33in /  1027hPa West 1.3mph /  2.1km/h 5mph /  8km/h 87% 0.00in /  0mm 265 W/m2
12:59 50.8 °F /  10.4 °C 47.1 °F /  8.4 °C 30.33in /  1027hPa West 0.9mph /  1.4km/h 4mph /  6.4km/h 84.2% 0.00in /  0mm 264 W/m2
13:04 51.1 °F /  10.6 °C 46.8 °F /  8.2 °C 30.32in /  1026.6hPa WNW 2.5mph /  4km/h 8mph /  12.9km/h 82.6% 0.00in /  0mm 315 W/m2
13:08 50.6 °F /  10.3 °C 45.8 °F /  7.7 °C 30.32in /  1026.6hPa WNW 3mph /  4.8km/h 8mph /  12.9km/h 80.8% 0.00in /  0mm 218 W/m2
13:14 50.5 °F /  10.3 °C 45.5 °F /  7.5 °C 30.32in /  1026.6hPa WNW 2.5mph /  4km/h 6mph /  9.7km/h 80% 0.00in /  0mm 137 W/m2
13:19 50.4 °F /  10.2 °C 45.5 °F /  7.5 °C 30.32in /  1026.6hPa WNW 1.6mph /  2.6km/h 6mph /  9.7km/h 80.2% 0.00in /  0mm 139 W/m2
13:24 50.5 °F /  10.3 °C 45.9 °F /  7.7 °C 30.32in /  1026.6hPa WNW 2.5mph /  4km/h 4mph /  6.4km/h 81% 0.00in /  0mm 130 W/m2
13:29 50.5 °F /  10.3 °C 45.9 °F /  7.7 °C 30.32in /  1026.6hPa WNW 2.7mph /  4.3km/h 7mph /  11.3km/h 81% 0.00in /  0mm 121 W/m2
13:34 50.4 °F /  10.2 °C 45.8 °F /  7.7 °C 30.32in /  1026.6hPa WNW 4.2mph /  6.8km/h 7mph /  11.3km/h 81% 0.00in /  0mm 102 W/m2
13:39 50.4 °F /  10.2 °C 45.9 °F /  7.7 °C 30.32in /  1026.6hPa WNW 2.2mph /  3.5km/h 7mph /  11.3km/h 81.6% 0.00in /  0mm 77 W/m2
13:44 50.3 °F /  10.2 °C 46 °F /  7.8 °C 30.32in /  1026.6hPa West 3mph /  4.8km/h 6mph /  9.7km/h 82% 0.00in /  0mm 151 W/m2
13:49 50.3 °F /  10.2 °C 45.6 °F /  7.6 °C 30.32in /  1026.6hPa West 3.6mph /  5.8km/h 6mph /  9.7km/h 81% 0.00in /  0mm 188 W/m2
13:54 50.4 °F /  10.2 °C 45.8 °F /  7.7 °C 30.32in /  1026.6hPa West 2.1mph /  3.4km/h 5mph /  8km/h 81% 0.00in /  0mm 186 W/m2
13:59 50.5 °F /  10.3 °C 45.7 °F /  7.6 °C 30.31in /  1026.3hPa WNW 2.4mph /  3.9km/h 6mph /  9.7km/h 80.6% 0.00in /  0mm 130 W/m2
14:04 50.5 °F /  10.3 °C 45.5 °F /  7.5 °C 30.31in /  1026.3hPa NW 1.7mph /  2.7km/h 6mph /  9.7km/h 80% 0.00in /  0mm 156 W/m2
14:09 50.5 °F /  10.3 °C 45.3 °F /  7.4 °C 30.31in /  1026.3hPa NW 2.7mph /  4.3km/h 6mph /  9.7km/h 79.6% 0.00in /  0mm 144 W/m2
14:14 50.4 °F /  10.2 °C 45 °F /  7.2 °C 30.31in /  1026.3hPa WNW 4mph /  6.4km/h 7mph /  11.3km/h 79% 0.00in /  0mm 139 W/m2
14:19 50.4 °F /  10.2 °C 45 °F /  7.2 °C 30.31in /  1026.3hPa NW 4.7mph /  7.6km/h 8mph /  12.9km/h 79% 0.00in /  0mm 107 W/m2
14:24 50.2 °F /  10.1 °C 44.8 °F /  7.1 °C 30.31in /  1026.3hPa WNW 4.4mph /  7.1km/h 8mph /  12.9km/h 79% 0.00in /  0mm 105 W/m2
14:29 50.2 °F /  10.1 °C 44.8 °F /  7.1 °C 30.31in /  1026.3hPa West 4.4mph /  7.1km/h 7mph /  11.3km/h 79% 0.00in /  0mm 95 W/m2
14:34 50.2 °F /  10.1 °C 44.8 °F /  7.1 °C 30.31in /  1026.3hPa West 3.7mph /  6km/h 7mph /  11.3km/h 79% 0.00in /  0mm 97 W/m2
14:39 50.1 °F /  10.1 °C 44.7 °F /  7.1 °C 30.31in /  1026.3hPa WNW 2.8mph /  4.5km/h 8mph /  12.9km/h 79% 0.00in /  0mm 88 W/m2
14:44 50 °F /  10 °C 44.6 °F /  7 °C 30.31in /  1026.3hPa NW 2.9mph /  4.7km/h 6mph /  9.7km/h 79% 0.00in /  0mm 77 W/m2
14:49 49.8 °F /  9.9 °C 44.4 °F /  6.9 °C 30.31in /  1026.3hPa WNW 4mph /  6.4km/h 7mph /  11.3km/h 79% 0.00in /  0mm 63 W/m2
14:54 49.6 °F /  9.8 °C 44.2 °F /  6.8 °C 30.31in /  1026.3hPa WNW 3.7mph /  6km/h 7mph /  11.3km/h 79% 0.00in /  0mm 60 W/m2
14:59 49.5 °F /  9.7 °C 44.1 °F /  6.7 °C 30.31in /  1026.3hPa WNW 4.7mph /  7.6km/h 7mph /  11.3km/h 79% 0.00in /  0mm 53 W/m2
15:04 49.5 °F /  9.7 °C 44.1 °F /  6.7 °C 30.31in /  1026.3hPa WNW 2.7mph /  4.3km/h 5mph /  8km/h 79% 0.00in /  0mm 69 W/m2
15:09 49.5 °F /  9.7 °C 44.1 °F /  6.7 °C 30.31in /  1026.3hPa WNW 2.1mph /  3.4km/h 5mph /  8km/h 79% 0.00in /  0mm 58 W/m2
15:14 49.5 °F /  9.7 °C 44.2 °F /  6.8 °C 30.32in /  1026.6hPa WNW 1.7mph /  2.7km/h 5mph /  8km/h 79.2% 0.00in /  0mm 46 W/m2
15:19 49.4 °F /  9.7 °C 44.3 °F /  6.8 °C 30.32in /  1026.6hPa NW 2.5mph /  4km/h 7mph /  11.3km/h 80% 0.00in /  0mm 39 W/m2
15:24 49.4 °F /  9.7 °C 44.3 °F /  6.8 °C 30.32in /  1026.6hPa WNW 1mph /  1.6km/h 3mph /  4.8km/h 80% 0.00in /  0mm 40 W/m2
15:29 49.5 °F /  9.7 °C 44.4 °F /  6.9 °C 30.32in /  1026.6hPa WNW 0.4mph /  0.6km/h 4mph /  6.4km/h 80% 0.00in /  0mm 33 W/m2
15:34 49.5 °F /  9.7 °C 44.4 °F /  6.9 °C 30.32in /  1026.6hPa WNW 1.3mph /  2.1km/h 3mph /  4.8km/h 80% 0.00in /  0mm 26 W/m2
15:39 49.5 °F /  9.7 °C 44.8 °F /  7.1 °C 30.32in /  1026.6hPa WNW 0.9mph /  1.4km/h 3mph /  4.8km/h 81% 0.00in /  0mm 21 W/m2
15:44 49.5 °F /  9.7 °C 44.8 °F /  7.1 °C 30.32in /  1026.6hPa WNW 0.6mph /  1km/h 4mph /  6.4km/h 81% 0.00in /  0mm 18 W/m2
15:49 49.3 °F /  9.6 °C 44.7 °F /  7.1 °C 30.32in /  1026.6hPa WNW 1.4mph /  2.3km/h 4mph /  6.4km/h 81.2% 0.00in /  0mm 14 W/m2
15:54 49.3 °F /  9.6 °C 45 °F /  7.2 °C 30.32in /  1026.6hPa Calm   3mph /  4.8km/h 82% 0.00in /  0mm 14 W/m2
15:59 49.2 °F /  9.6 °C 44.9 °F /  7.2 °C 30.32in /  1026.6hPa WNW 0.2mph /  0.3km/h 3mph /  4.8km/h 82% 0.00in /  0mm 12 W/m2
16:04 49 °F /  9.4 °C 44.7 °F /  7.1 °C 30.32in /  1026.6hPa WNW 1mph /  1.6km/h 4mph /  6.4km/h 82% 0.00in /  0mm 9 W/m2
16:09 48.9 °F /  9.4 °C 44.8 °F /  7.1 °C 30.32in /  1026.6hPa WNW 0.5mph /  0.8km/h 4mph /  6.4km/h 83% 0.00in /  0mm 7 W/m2
16:14 48.7 °F /  9.3 °C 44.8 °F /  7.1 °C 30.32in /  1026.6hPa WNW 1.2mph /  1.9km/h 3mph /  4.8km/h 83% 0.00in /  0mm 5 W/m2
16:19 48.7 °F /  9.3 °C 44.8 °F /  7.1 °C 30.32in /  1026.6hPa Calm   2mph /  3.2km/h 83% 0.00in /  0mm 0 W/m2
16:24 48.6 °F /  9.2 °C 44.7 °F /  7.1 °C 30.32in /  1026.6hPa WNW 0.5mph /  0.8km/h 3mph /  4.8km/h 83% 0.00in /  0mm 0 W/m2
16:29 48.6 °F /  9.2 °C 44.6 °F /  7 °C 30.32in /  1026.6hPa Calm   2mph /  3.2km/h 83.4% 0.00in /  0mm 0 W/m2
16:34 48.4 °F /  9.1 °C 44.6 °F /  7 °C 30.32in /  1026.6hPa Calm     84% 0.00in /  0mm 0 W/m2
16:39 48.2 °F /  9 °C 44.4 °F /  6.9 °C 30.32in /  1026.6hPa Calm     84% 0.00in /  0mm 0 W/m2
16:44 48 °F /  8.9 °C 44.2 °F /  6.8 °C 30.32in /  1026.6hPa Calm     84% 0.00in /  0mm 0 W/m2
16:49 47.8 °F /  8.8 °C 44.4 °F /  6.9 °C 30.32in /  1026.6hPa Calm     85% 0.00in /  0mm 0 W/m2
16:54 47.7 °F /  8.7 °C 44.2 °F /  6.8 °C 30.32in /  1026.6hPa Calm     85% 0.00in /  0mm 0 W/m2
16:59 47.3 °F /  8.5 °C 43.9 °F /  6.6 °C 30.32in /  1026.6hPa Calm     85% 0.00in /  0mm 0 W/m2
17:04 47 °F /  8.3 °C 43.9 °F /  6.6 °C 30.32in /  1026.6hPa Calm     85.6% 0.00in /  0mm 0 W/m2
17:09 46.8 °F /  8.2 °C 43.8 °F /  6.6 °C 30.32in /  1026.6hPa Calm     86% 0.00in /  0mm 0 W/m2
17:14 46.5 °F /  8.1 °C 43.4 °F /  6.3 °C 30.32in /  1026.6hPa Calm     86% 0.00in /  0mm 0 W/m2
17:19 46.2 °F /  7.9 °C 43.2 °F /  6.2 °C 30.32in /  1026.6hPa Calm     86% 0.00in /  0mm 0 W/m2
17:24 46 °F /  7.8 °C 43.3 °F /  6.3 °C 30.32in /  1026.6hPa Calm     87% 0.00in /  0mm 0 W/m2
17:29 45.8 °F /  7.7 °C 43.1 °F /  6.2 °C 30.32in /  1026.6hPa Calm     87% 0.00in /  0mm 0 W/m2
17:34 45.5 °F /  7.5 °C 42.8 °F /  6 °C 30.32in /  1026.6hPa Calm     87% 0.00in /  0mm 0 W/m2
17:39 45.2 °F /  7.3 °C 42.5 °F /  5.8 °C 30.32in /  1026.6hPa Calm     87% 0.00in /  0mm 0 W/m2
17:44 45 °F /  7.2 °C 42.3 °F /  5.7 °C 30.32in /  1026.6hPa Calm     87% 0.00in /  0mm 0 W/m2
17:49 44.6 °F /  7 °C 42.1 °F /  5.6 °C 30.32in /  1026.6hPa WNW 0.6mph /  1km/h 3mph /  4.8km/h 88% 0.00in /  0mm 0 W/m2
17:54 44.2 °F /  6.8 °C 41.7 °F /  5.4 °C 30.33in /  1027hPa WNW 1.6mph /  2.6km/h 3mph /  4.8km/h 88% 0.00in /  0mm 0 W/m2
17:59 44.1 °F /  6.7 °C 41.6 °F /  5.3 °C 30.33in /  1027hPa WNW 0.4mph /  0.6km/h 3mph /  4.8km/h 88% 0.00in /  0mm 0 W/m2
18:04 43.9 °F /  6.6 °C 41.6 °F /  5.3 °C 30.33in /  1027hPa WNW 1.2mph /  1.9km/h 3mph /  4.8km/h 88.8% 0.00in /  0mm 0 W/m2
18:09 43.8 °F /  6.6 °C 41.6 °F /  5.3 °C 30.33in /  1027hPa Calm   3mph /  4.8km/h 89% 0.00in /  0mm 0 W/m2
18:14 43.7 °F /  6.5 °C 41.5 °F /  5.3 °C 30.33in /  1027hPa Calm     89% 0.00in /  0mm 0 W/m2
18:19 43.7 °F /  6.5 °C 41.5 °F /  5.3 °C 30.33in /  1027hPa Calm     89% 0.00in /  0mm 0 W/m2
18:24 43.5 °F /  6.4 °C 41.4 °F /  5.2 °C 30.33in /  1027hPa Calm     89% 0.00in /  0mm 0 W/m2
18:29 43.4 °F /  6.3 °C 41.6 °F /  5.3 °C 30.33in /  1027hPa Calm     89.8% 0.00in /  0mm 0 W/m2
18:34 43.3 °F /  6.3 °C 41.5 °F /  5.3 °C 30.33in /  1027hPa Calm     90% 0.00in /  0mm 0 W/m2
18:39 43.2 °F /  6.2 °C 41.4 °F /  5.2 °C 30.33in /  1027hPa Calm     90% 0.00in /  0mm 0 W/m2
18:44 43 °F /  6.1 °C 41.2 °F /  5.1 °C 30.33in /  1027hPa Calm     90% 0.00in /  0mm 0 W/m2
18:49 42.8 °F /  6 °C 41 °F /  5 °C 30.34in /  1027.3hPa Calm     90% 0.00in /  0mm 0 W/m2
18:54 42.5 °F /  5.8 °C 40.7 °F /  4.8 °C 30.34in /  1027.3hPa Calm     90% 0.00in /  0mm 0 W/m2
18:59 42.2 °F /  5.7 °C 40.4 °F /  4.7 °C 30.34in /  1027.3hPa Calm     90% 0.00in /  0mm 0 W/m2
19:04 42.1 °F /  5.6 °C 40.3 °F /  4.6 °C 30.34in /  1027.3hPa Calm     90% 0.00in /  0mm 0 W/m2
19:09 42.1 °F /  5.6 °C 40.3 °F /  4.6 °C 30.34in /  1027.3hPa Calm   1mph /  1.6km/h 90% 0.00in /  0mm 0 W/m2
19:14 42.1 °F /  5.6 °C 40.3 °F /  4.6 °C 30.34in /  1027.3hPa Calm     90% 0.00in /  0mm 0 W/m2
19:19 41.9 °F /  5.5 °C 40.1 °F /  4.5 °C 30.34in /  1027.3hPa Calm     90% 0.00in /  0mm 0 W/m2
19:24 41.7 °F /  5.4 °C 39.9 °F /  4.4 °C 30.34in /  1027.3hPa Calm     90.2% 0.00in /  0mm 0 W/m2
19:29 41.7 °F /  5.4 °C 40.1 °F /  4.5 °C 30.34in /  1027.3hPa Calm     91% 0.00in /  0mm 0 W/m2
19:34 41.7 °F /  5.4 °C 40.1 °F /  4.5 °C 30.34in /  1027.3hPa Calm     91% 0.00in /  0mm 0 W/m2
19:39 41.5 °F /  5.3 °C 39.9 °F /  4.4 °C 30.34in /  1027.3hPa Calm     91% 0.00in /  0mm 0 W/m2
19:44 41.5 °F /  5.3 °C 39.9 °F /  4.4 °C 30.34in /  1027.3hPa Calm     91% 0.00in /  0mm 0 W/m2
19:49 41.5 °F /  5.3 °C 39.9 °F /  4.4 °C 30.34in /  1027.3hPa Calm     91% 0.00in /  0mm 0 W/m2
19:54 41.5 °F /  5.3 °C 39.9 °F /  4.4 °C 30.34in /  1027.3hPa Calm     91% 0.00in /  0mm 0 W/m2
19:59 41.5 °F /  5.3 °C 39.9 °F /  4.4 °C 30.34in /  1027.3hPa Calm     91% 0.00in /  0mm 0 W/m2
20:04 41.4 °F /  5.2 °C 39.7 °F /  4.3 °C 30.34in /  1027.3hPa Calm     91% 0.00in /  0mm 0 W/m2
20:09 41.5 °F /  5.3 °C 39.8 °F /  4.3 °C 30.34in /  1027.3hPa Calm     91% 0.00in /  0mm 0 W/m2
20:14 41.5 °F /  5.3 °C 39.9 °F /  4.4 °C 30.34in /  1027.3hPa Calm     91% 0.00in /  0mm 0 W/m2
20:19 41.5 °F /  5.3 °C 39.9 °F /  4.4 °C 30.34in /  1027.3hPa Calm     91% 0.00in /  0mm 0 W/m2
20:24 41.7 °F /  5.4 °C 40.1 °F /  4.5 °C 30.34in /  1027.3hPa Calm     91% 0.00in /  0mm 0 W/m2
20:29 41.7 °F /  5.4 °C 40.2 °F /  4.6 °C 30.34in /  1027.3hPa Calm     91.3% 0.00in /  0mm 0 W/m2
20:34 41.7 °F /  5.4 °C 40.5 °F /  4.7 °C 30.34in /  1027.3hPa Calm     92% 0.00in /  0mm 0 W/m2
20:39 41.7 °F /  5.4 °C 40.5 °F /  4.7 °C 30.34in /  1027.3hPa Calm     92% 0.00in /  0mm 0 W/m2
20:44 41.7 °F /  5.4 °C 40.5 °F /  4.7 °C 30.34in /  1027.3hPa Calm     92% 0.00in /  0mm 0 W/m2
20:49 41.5 °F /  5.3 °C 40.3 °F /  4.6 °C 30.34in /  1027.3hPa Calm     92% 0.00in /  0mm 0 W/m2
20:54 41.5 °F /  5.3 °C 40.2 °F /  4.6 °C 30.35in /  1027.7hPa Calm     92% 0.00in /  0mm 0 W/m2
20:59 41.5 °F /  5.3 °C 40.3 °F /  4.6 °C 30.35in /  1027.7hPa Calm     92% 0.00in /  0mm 0 W/m2
21:04 41.5 °F /  5.3 °C 40.3 °F /  4.6 °C 30.35in /  1027.7hPa Calm     92% 0.00in /  0mm 0 W/m2
21:09 41.5 °F /  5.3 °C 40.3 °F /  4.6 °C 30.35in /  1027.7hPa Calm     92% 0.00in /  0mm 0 W/m2
21:14 41.5 °F /  5.3 °C 40.3 °F /  4.6 °C 30.35in /  1027.7hPa Calm     92% 0.00in /  0mm 0 W/m2
21:19 41.5 °F /  5.3 °C 40.3 °F /  4.6 °C 30.35in /  1027.7hPa Calm     92% 0.00in /  0mm 0 W/m2
21:24 41.5 °F /  5.3 °C 40.2 °F /  4.6 °C 30.35in /  1027.7hPa Calm     92% 0.00in /  0mm 0 W/m2
21:29 41.5 °F /  5.3 °C 40.3 °F /  4.6 °C 30.35in /  1027.7hPa Calm     92% 0.00in /  0mm 0 W/m2
21:34 41.5 °F /  5.3 °C 40.3 °F /  4.6 °C 30.35in /  1027.7hPa Calm     92% 0.00in /  0mm 0 W/m2
21:39 41.5 °F /  5.3 °C 40.2 °F /  4.6 °C 30.35in /  1027.7hPa Calm     92% 0.00in /  0mm 0 W/m2
21:44 41.4 °F /  5.2 °C 40.1 °F /  4.5 °C 30.35in /  1027.7hPa Calm     92% 0.00in /  0mm 0 W/m2
21:49 41.5 °F /  5.3 °C 40.3 °F /  4.6 °C 30.35in /  1027.7hPa Calm     92% 0.00in /  0mm 0 W/m2
21:54 41.5 °F /  5.3 °C 40.3 °F /  4.6 °C 30.34in /  1027.3hPa Calm     92% 0.00in /  0mm 0 W/m2
21:59 41.4 °F /  5.2 °C 40.1 °F /  4.5 °C 30.34in /  1027.3hPa Calm     92% 0.00in /  0mm 0 W/m2
22:04 41.3 °F /  5.2 °C 40 °F /  4.4 °C 30.35in /  1027.7hPa Calm     92% 0.00in /  0mm 0 W/m2
22:09 41.2 °F /  5.1 °C 39.9 °F /  4.4 °C 30.35in /  1027.7hPa Calm     92% 0.00in /  0mm 0 W/m2
22:14 41.1 °F /  5.1 °C 39.8 °F /  4.3 °C 30.35in /  1027.7hPa Calm     92% 0.00in /  0mm 0 W/m2
22:19 40.9 °F /  4.9 °C 39.6 °F /  4.2 °C 30.35in /  1027.7hPa Calm     92% 0.00in /  0mm 0 W/m2
22:24 40.7 °F /  4.8 °C 39.5 °F /  4.2 °C 30.35in /  1027.7hPa Calm     92% 0.00in /  0mm 0 W/m2
22:29 40.6 °F /  4.8 °C 39.3 °F /  4.1 °C 30.34in /  1027.3hPa Calm     92% 0.00in /  0mm 0 W/m2
22:34 40.5 °F /  4.7 °C 39.3 °F /  4.1 °C 30.35in /  1027.7hPa Calm     92.2% 0.00in /  0mm 0 W/m2
22:39 40.3 °F /  4.6 °C 39.3 °F /  4.1 °C 30.35in /  1027.7hPa Calm     92.8% 0.00in /  0mm 0 W/m2
22:44 39.9 °F /  4.4 °C 38.7 °F /  3.7 °C 30.34in /  1027.3hPa Calm     92% 0.00in /  0mm 0 W/m2
22:49 39.9 °F /  4.4 °C 38.8 °F /  3.8 °C 30.35in /  1027.7hPa Calm     92.2% 0.00in /  0mm 0 W/m2
22:54 39.7 °F /  4.3 °C 38.8 °F /  3.8 °C 30.35in /  1027.7hPa Calm     93% 0.00in /  0mm 0 W/m2
22:59 39.7 °F /  4.3 °C 38.6 °F /  3.7 °C 30.35in /  1027.7hPa Calm     92.4% 0.00in /  0mm 0 W/m2
23:04 39.6 °F /  4.2 °C 38.7 °F /  3.7 °C 30.35in /  1027.7hPa Calm     92.8% 0.00in /  0mm 0 W/m2
23:09 39.6 °F /  4.2 °C 38.7 °F /  3.7 °C 30.35in /  1027.7hPa Calm     93% 0.00in /  0mm 0 W/m2
23:14 39.6 °F /  4.2 °C 38.7 °F /  3.7 °C 30.35in /  1027.7hPa Calm     93% 0.00in /  0mm 0 W/m2
23:19 39.6 °F /  4.2 °C 38.7 °F /  3.7 °C 30.35in /  1027.7hPa Calm     93% 0.00in /  0mm 0 W/m2
23:24 39.7 °F /  4.3 °C 38.8 °F /  3.8 °C 30.35in /  1027.7hPa Calm     93% 0.00in /  0mm 0 W/m2
23:29 39.7 °F /  4.3 °C 38.8 °F /  3.8 °C 30.35in /  1027.7hPa WNW 0.2mph /  0.3km/h 2mph /  3.2km/h 93% 0.00in /  0mm 0 W/m2
23:34 39.7 °F /  4.3 °C 38.8 °F /  3.8 °C 30.35in /  1027.7hPa Calm     93% 0.00in /  0mm 0 W/m2
23:39 39.9 °F /  4.4 °C 39 °F /  3.9 °C 30.35in /  1027.7hPa Calm     93% 0.00in /  0mm 0 W/m2
23:44 39.9 °F /  4.4 °C 39 °F /  3.9 °C 30.35in /  1027.7hPa Calm     93% 0.00in /  0mm 0 W/m2
23:49 40 °F /  4.4 °C 39.1 °F /  3.9 °C 30.35in /  1027.7hPa Calm     93% 0.00in /  0mm 0 W/m2
23:54 40.1 °F /  4.5 °C 39.2 °F /  4 °C 30.35in /  1027.7hPa Calm     93% 0.00in /  0mm 0 W/m2
23:59 40.1 °F /  4.5 °C 39.2 °F /  4 °C 30.35in /  1027.7hPa Calm     93% 0.00in /  0mm 0 W/m2
Bath Spa Weather
Compliments of Weather Underground - 2 mb